Time;durP1;ratioP1;P1;durP2;ratioP2;P2;SDS_P1;SDS_P2;PMS_P1;PMS_P2;Temp;Humidity;BMP_temperature;BMP_pressure;BME280_temperature;BME280_humidity;BME280_pressure;Samples;Min_cycle;Max_cycle;Signal;HPM_P1;HPM_P2
2023/07/01 00:01:26;;;;;;;7.05;2.47;;;;;;;17.60;54.50;100736.78;5029050;28;20075;-60
2023/07/01 00:03:52;;;;;;;5.90;2.40;;;;;;;17.60;54.23;100730.56;5017254;28;20022;-60
2023/07/01 00:06:19;;;;;;;6.40;2.40;;;;;;;17.60;54.34;100734.09;5019972;28;20068;-60
2023/07/01 00:08:44;;;;;;;5.75;2.33;;;;;;;17.60;54.39;100730.56;5020217;28;20033;-60
2023/07/01 00:11:09;;;;;;;4.95;2.33;;;;;;;17.59;54.49;100726.25;5016829;28;20553;-60
2023/07/01 00:13:35;;;;;;;4.57;2.40;;;;;;;17.58;54.15;100720.06;5018461;28;20041;-60
2023/07/01 00:16:00;;;;;;;7.35;2.42;;;;;;;17.59;53.92;100710.97;5028512;28;20473;-59
2023/07/01 00:18:26;;;;;;;5.53;2.53;;;;;;;17.58;54.44;100714.69;5029930;28;20037;-60
2023/07/01 00:20:53;;;;;;;7.13;2.35;;;;;;;17.59;54.07;100707.44;5015675;28;20068;-60
2023/07/01 00:23:18;;;;;;;5.57;2.45;;;;;;;17.58;54.51;100705.81;5029907;28;20029;-60
2023/07/01 00:25:44;;;;;;;6.47;2.30;;;;;;;17.57;54.34;100702.31;5026814;28;20088;-60
2023/07/01 00:28:09;;;;;;;6.72;2.33;;;;;;;17.57;54.30;100698.78;5023609;28;20483;-61
2023/07/01 00:30:34;;;;;;;6.18;2.30;;;;;;;17.51;54.49;100687.06;5023188;28;20061;-60
2023/07/01 00:33:00;;;;;;;6.05;2.35;;;;;;;17.54;54.72;100691.19;5018121;28;20098;-60
2023/07/01 00:35:25;;;;;;;6.00;2.38;;;;;;;17.55;54.71;100688.28;5018188;28;20029;-60
2023/07/01 00:37:51;;;;;;;4.25;2.15;;;;;;;17.55;54.89;100687.47;5023507;28;20589;-60
2023/07/01 00:40:16;;;;;;;7.03;2.28;;;;;;;17.54;55.06;100686.63;5027543;28;20021;-60
2023/07/01 00:42:43;;;;;;;9.15;2.20;;;;;;;17.54;54.68;100693.88;5024422;28;20032;-60
2023/07/01 00:45:08;;;;;;;8.13;2.40;;;;;;;17.52;54.97;100691.41;5018827;28;20030;-60
2023/07/01 00:47:33;;;;;;;6.93;2.58;;;;;;;17.53;55.08;100682.31;5025357;28;20095;-61
2023/07/01 00:49:59;;;;;;;5.60;2.28;;;;;;;17.52;55.04;100680.66;5022318;28;20053;-60
2023/07/01 00:52:24;;;;;;;4.40;2.25;;;;;;;17.47;55.60;100669.78;5019801;28;20041;-60
2023/07/01 00:54:49;;;;;;;10.13;2.30;;;;;;;17.48;55.47;100670.59;5017910;28;20079;-60
2023/07/01 00:57:15;;;;;;;5.05;2.13;;;;;;;17.48;55.63;100673.28;5026556;28;20026;-60
2023/07/01 00:59:40;;;;;;;6.15;2.17;;;;;;;17.46;55.72;100675.34;5029995;28;20057;-60
2023/07/01 01:02:13;;;;;;;7.63;2.10;;;;;;;17.46;55.97;100670.81;5023596;28;20104;-60
2023/07/01 01:04:44;;;;;;;7.68;2.65;;;;;;;17.47;55.87;100669.78;5025203;28;20034;-60
2023/07/01 01:07:22;;;;;;;3.67;2.28;;;;;;;17.46;56.38;100668.13;5021080;28;20394;-60
2023/07/01 01:09:53;;;;;;;5.35;2.22;;;;;;;17.49;56.48;100674.91;5021678;28;20032;-60
2023/07/01 01:12:20;;;;;;;5.32;2.20;;;;;;;17.46;56.98;100665.44;5026104;28;20071;-60
2023/07/01 01:14:50;;;;;;;8.73;2.50;;;;;;;17.46;57.40;100656.56;5018221;28;20476;-60
2023/07/01 01:17:17;;;;;;;6.82;2.50;;;;;;;17.45;57.85;100642.31;5018498;28;20567;-60
2023/07/01 01:19:52;;;;;;;6.82;2.60;;;;;;;17.43;58.09;100649.78;5011977;28;20025;-60
2023/07/01 01:22:21;;;;;;;5.53;2.53;;;;;;;17.43;58.45;100643.59;5023740;28;20128;-60
2023/07/01 01:24:53;;;;;;;8.88;2.50;;;;;;;17.41;58.85;100645.66;5029849;28;20017;-60
2023/07/01 01:27:23;;;;;;;8.77;2.40;;;;;;;17.41;58.91;100645.66;5011032;28;20422;-60
2023/07/01 01:29:49;;;;;;;5.15;2.47;;;;;;;17.38;59.02;100630.84;5024007;28;20025;-60
2023/07/01 01:32:14;;;;;;;6.45;2.70;;;;;;;17.39;59.11;100637.03;5015212;28;20044;-60
2023/07/01 01:34:40;;;;;;;7.07;2.50;;;;;;;17.36;59.80;100626.72;5032797;28;20040;-60
2023/07/01 01:37:11;;;;;;;5.40;2.67;;;;;;;17.37;59.65;100634.56;5023735;28;20041;-60
2023/07/01 01:39:43;;;;;;;6.53;2.80;;;;;;;17.38;60.09;100622.78;5022835;28;20025;-60
2023/07/01 01:42:16;;;;;;;6.25;2.67;;;;;;;17.36;60.23;100621.34;5017422;28;20483;-60
2023/07/01 01:44:47;;;;;;;6.63;2.50;;;;;;;17.33;60.62;100622.59;5022802;28;20022;-60
2023/07/01 01:47:19;;;;;;;10.35;2.75;;;;;;;17.33;60.54;100622.59;5024768;28;20048;-60
2023/07/01 01:49:46;;;;;;;5.28;2.90;;;;;;;17.31;60.76;100612.06;5024063;28;20036;-60
2023/07/01 01:52:15;;;;;;;7.47;2.83;;;;;;;17.28;61.64;100601.78;5026316;28;20093;-60
2023/07/01 01:54:46;;;;;;;8.30;2.85;;;;;;;17.27;61.57;100608.19;5020813;28;20117;-60
2023/07/01 01:57:13;;;;;;;5.80;2.50;;;;;;;17.24;61.70;100605.94;5018807;28;20061;-61
2023/07/01 01:59:40;;;;;;;7.40;2.65;;;;;;;17.21;62.37;100601.03;5020979;28;20025;-60
2023/07/01 02:02:05;;;;;;;9.50;3.00;;;;;;;17.21;62.89;100595.66;5012831;28;20588;-60
2023/07/01 02:04:31;;;;;;;7.22;3.17;;;;;;;17.16;63.32;100598.19;5020158;28;20125;-60
2023/07/01 02:06:56;;;;;;;7.40;2.70;;;;;;;17.08;64.47;100592.28;5020313;28;20044;-60
2023/07/01 02:09:21;;;;;;;7.32;3.17;;;;;;;16.93;65.89;100593.41;5023084;28;20491;-60
2023/07/01 02:11:47;;;;;;;6.45;3.00;;;;;;;16.81;67.47;100597.84;5017276;28;20068;-60
2023/07/01 02:14:12;;;;;;;9.52;2.85;;;;;;;16.67;68.43;100583.69;5014786;28;20475;-60
2023/07/01 02:16:38;;;;;;;5.45;3.00;;;;;;;16.61;68.74;100570.31;5009667;28;20461;-60
2023/07/01 02:19:06;;;;;;;7.80;3.05;;;;;;;16.60;68.97;100580.22;5014636;28;20026;-60
2023/07/01 02:21:32;;;;;;;6.88;2.97;;;;;;;16.63;70.48;100578.94;5021480;28;20029;-60
2023/07/01 02:23:58;;;;;;;6.50;3.10;;;;;;;16.61;71.00;100573.00;5019622;28;20075;-62
2023/07/01 02:26:24;;;;;;;5.88;3.30;;;;;;;16.59;71.85;100572.38;5018217;28;20068;-62
2023/07/01 02:28:49;;;;;;;5.05;2.65;;;;;;;16.52;72.84;100560.88;5023604;28;20025;-62
2023/07/01 02:31:17;;;;;;;7.70;2.60;;;;;;;16.48;73.30;100555.16;5024801;28;20032;-62
2023/07/01 02:33:43;;;;;;;6.60;2.90;;;;;;;16.41;74.00;100548.97;5013631;28;20515;-62
2023/07/01 02:36:09;;;;;;;6.28;3.13;;;;;;;16.35;75.16;100568.59;5023871;28;20044;-62
2023/07/01 02:38:34;;;;;;;7.53;3.30;;;;;;;16.28;75.60;100563.28;5022019;28;20502;-62
2023/07/01 02:41:00;;;;;;;8.00;3.53;;;;;;;16.22;76.56;100566.00;5016780;28;20032;-62
2023/07/01 02:43:25;;;;;;;6.80;3.35;;;;;;;16.19;77.43;100555.69;5016587;28;20089;-62
2023/07/01 02:45:50;;;;;;;4.13;3.00;;;;;;;16.15;78.10;100563.34;5016923;28;20115;-62
2023/07/01 02:48:15;;;;;;;6.70;3.03;;;;;;;16.12;78.38;100553.06;5022972;28;20511;-62
2023/07/01 02:50:40;;;;;;;6.90;3.22;;;;;;;16.10;78.83;100553.28;5017476;28;20071;-62
2023/07/01 02:53:06;;;;;;;7.40;3.30;;;;;;;16.07;79.17;100544.84;5011181;28;20029;-62
2023/07/01 02:55:31;;;;;;;7.65;3.15;;;;;;;16.07;79.57;100540.31;5028004;28;20391;-62
2023/07/01 02:57:56;;;;;;;5.05;2.75;;;;;;;16.05;79.44;100530.84;5017431;28;20032;-62
2023/07/01 03:00:22;;;;;;;7.63;3.38;;;;;;;16.05;79.81;100528.16;5019833;28;20065;-62
2023/07/01 03:02:47;;;;;;;9.52;3.03;;;;;;;16.04;80.12;100531.88;5013367;28;20083;-62
2023/07/01 03:05:12;;;;;;;7.13;2.95;;;;;;;16.03;80.65;100527.56;5015444;28;20018;-62
2023/07/01 03:07:38;;;;;;;5.35;2.88;;;;;;;16.04;80.65;100530.03;5019742;28;20056;-62
2023/07/01 03:10:03;;;;;;;9.85;3.13;;;;;;;16.00;81.33;100526.13;5009703;28;20843;-62
2023/07/01 03:12:29;;;;;;;7.97;3.00;;;;;;;15.98;81.49;100516.69;5012371;28;20084;-62
2023/07/01 03:14:54;;;;;;;5.28;3.10;;;;;;;15.98;81.94;100524.72;5018291;28;20499;-62
2023/07/01 03:17:19;;;;;;;6.20;2.97;;;;;;;15.94;81.96;100526.19;5009793;28;20033;-63
2023/07/01 03:19:44;;;;;;;5.13;3.03;;;;;;;15.93;82.75;100519.19;5020147;28;20714;-62
2023/07/01 03:22:10;;;;;;;6.32;3.08;;;;;;;15.93;82.89;100529.88;5023574;28;20079;-63
2023/07/01 03:24:35;;;;;;;3.60;2.97;;;;;;;15.88;83.40;100511.75;5010403;28;20025;-62
2023/07/01 03:27:03;;;;;;;7.95;3.22;;;;;;;15.85;83.64;100512.19;5021855;28;20086;-62
2023/07/01 03:29:28;;;;;;;4.80;3.13;;;;;;;15.83;84.03;100514.25;5012056;28;20722;-62
2023/07/01 03:31:53;;;;;;;6.10;3.15;;;;;;;15.83;84.67;100510.75;5025356;28;20135;-62
2023/07/01 03:34:22;;;;;;;4.50;3.10;;;;;;;15.84;85.10;100512.41;5014639;28;20045;-62
2023/07/01 03:36:47;;;;;;;10.57;3.33;;;;;;;15.82;84.94;100509.13;5021377;28;20057;-62
2023/07/01 03:39:12;;;;;;;6.07;3.35;;;;;;;15.80;85.36;100499.44;5023673;28;20312;-62
2023/07/01 03:41:38;;;;;;;4.80;3.22;;;;;;;15.79;85.47;100500.47;5020263;28;20053;-62
2023/07/01 03:44:04;;;;;;;4.43;3.00;;;;;;;15.77;85.90;100494.50;5020820;28;20025;-62
2023/07/01 03:46:29;;;;;;;4.60;3.28;;;;;;;15.74;86.32;100497.63;5023423;28;20087;-62
2023/07/01 03:48:55;;;;;;;7.85;3.35;;;;;;;15.70;87.27;100501.75;5012491;28;20022;-62
2023/07/01 03:51:20;;;;;;;5.88;3.20;;;;;;;15.66;87.63;100499.72;5025829;28;20123;-62
2023/07/01 03:53:46;;;;;;;6.53;3.67;;;;;;;15.60;88.33;100498.69;5023809;28;20104;-62
2023/07/01 03:56:11;;;;;;;5.43;3.50;;;;;;;15.55;88.72;100494.97;5021840;28;20028;-62
2023/07/01 03:58:36;;;;;;;6.10;3.55;;;;;;;15.51;89.12;100489.22;5017186;28;20033;-62
2023/07/01 04:01:04;;;;;;;6.32;4.28;;;;;;;15.45;90.10;100488.22;5015449;28;20022;-62
2023/07/01 04:03:30;;;;;;;5.07;3.45;;;;;;;15.40;90.64;100485.38;5022954;28;20031;-62
2023/07/01 04:05:55;;;;;;;5.82;3.72;;;;;;;15.40;90.87;100485.38;5022172;28;20033;-62
2023/07/01 04:08:20;;;;;;;7.18;3.65;;;;;;;15.39;91.71;100474.88;5028885;28;20018;-62
2023/07/01 04:10:46;;;;;;;4.88;3.83;;;;;;;15.37;92.04;100475.09;5024187;28;20076;-62
2023/07/01 04:13:11;;;;;;;4.55;3.63;;;;;;;15.35;92.61;100473.66;5026432;28;20076;-62
2023/07/01 04:15:36;;;;;;;4.53;3.42;;;;;;;15.34;93.17;100474.69;5027914;28;20041;-62
2023/07/01 04:18:02;;;;;;;4.60;3.30;;;;;;;15.32;93.51;100471.38;5024989;28;20059;-62
2023/07/01 04:20:27;;;;;;;6.90;3.88;;;;;;;15.28;93.86;100460.28;5033242;28;20025;-62
2023/07/01 04:22:53;;;;;;;6.05;3.50;;;;;;;15.28;94.58;100456.78;5025950;28;20018;-62
2023/07/01 04:25:18;;;;;;;3.97;3.63;;;;;;;15.27;94.58;100455.97;5026915;28;20048;-62
2023/07/01 04:27:43;;;;;;;4.55;3.42;;;;;;;15.25;94.57;100463.38;5021063;28;20026;-62
2023/07/01 04:30:11;;;;;;;4.75;3.60;;;;;;;15.24;95.31;100459.06;5020417;28;20084;-63
2023/07/01 04:32:37;;;;;;;5.32;3.28;;;;;;;15.20;95.51;100449.81;5026108;28;20026;-62
2023/07/01 04:35:02;;;;;;;5.53;3.80;;;;;;;15.18;96.40;100463.41;5022835;28;20153;-62
2023/07/01 04:37:28;;;;;;;4.32;3.53;;;;;;;15.12;96.30;100448.19;5023183;28;20041;-62
2023/07/01 04:39:53;;;;;;;4.68;3.80;;;;;;;15.06;97.26;100448.22;5023583;28;20052;-63
2023/07/01 04:42:18;;;;;;;4.30;3.85;;;;;;;15.02;97.65;100445.13;5020900;28;20030;-62
2023/07/01 04:44:44;;;;;;;4.80;3.80;;;;;;;15.01;98.72;100440.78;5026187;28;20040;-62
2023/07/01 04:47:09;;;;;;;4.75;4.25;;;;;;;15.03;99.32;100433.38;5027469;28;20116;-62
2023/07/01 04:49:34;;;;;;;5.43;4.13;;;;;;;15.05;99.40;100436.69;5020791;28;20025;-62
2023/07/01 04:52:00;;;;;;;5.38;4.50;;;;;;;15.07;100.00;100437.31;5017054;28;20159;-62
2023/07/01 04:54:25;;;;;;;7.53;4.60;;;;;;;15.09;100.00;100431.75;5014912;28;20491;-62
2023/07/01 04:56:50;;;;;;;5.55;4.07;;;;;;;15.09;99.99;100429.91;5018493;28;20053;-62
2023/07/01 04:59:16;;;;;;;5.00;4.07;;;;;;;15.10;100.00;100438.75;5020663;28;20040;-62
2023/07/01 05:01:41;;;;;;;4.50;4.05;;;;;;;15.12;100.00;100434.81;5020740;28;20052;-62
2023/07/01 05:04:06;;;;;;;4.78;4.28;;;;;;;15.12;100.00;100429.47;5025226;28;20468;-62
2023/07/01 05:06:32;;;;;;;6.53;4.65;;;;;;;15.13;100.00;100431.13;5019006;28;20033;-62
2023/07/01 05:08:57;;;;;;;6.95;4.38;;;;;;;15.15;100.00;100434.41;5020450;28;20029;-62
2023/07/01 05:11:23;;;;;;;4.88;4.38;;;;;;;15.18;100.00;100436.66;5017630;28;20057;-62
2023/07/01 05:13:48;;;;;;;5.78;4.40;;;;;;;15.18;100.00;100433.97;5018844;28;20044;-62
2023/07/01 05:16:14;;;;;;;5.22;4.25;;;;;;;15.19;100.00;100435.63;5022931;28;20037;-62
2023/07/01 05:18:39;;;;;;;4.65;4.03;;;;;;;15.19;100.00;100427.59;5014236;28;20645;-62
2023/07/01 05:21:04;;;;;;;5.97;4.10;;;;;;;15.22;100.00;100428.19;5016757;28;20074;-61
2023/07/01 05:23:29;;;;;;;4.72;3.97;;;;;;;15.22;100.00;100422.84;5021596;28;20025;-62
2023/07/01 05:25:55;;;;;;;4.88;4.05;;;;;;;15.24;100.00;100415.44;5021619;28;20155;-62
2023/07/01 05:28:20;;;;;;;6.00;3.85;;;;;;;15.24;100.00;100418.09;5013566;28;20617;-62
2023/07/01 05:30:46;;;;;;;6.18;4.03;;;;;;;15.24;100.00;100428.81;5026202;28;20673;-62
2023/07/01 05:33:11;;;;;;;5.70;4.20;;;;;;;15.26;100.00;100410.69;5022787;28;20030;-62
2023/07/01 05:35:37;;;;;;;4.47;3.95;;;;;;;15.26;100.00;100416.03;5017952;28;20037;-62
2023/07/01 05:38:12;;;;;;;5.15;3.90;;;;;;;15.26;100.00;100416.88;5022837;28;20040;-63
2023/07/01 05:40:38;;;;;;;4.18;3.75;;;;;;;15.28;100.00;100414.78;5011987;28;20604;-62
2023/07/01 05:43:03;;;;;;;4.63;3.60;;;;;;;15.28;100.00;100414.78;5026594;28;20025;-62
2023/07/01 05:45:29;;;;;;;5.93;3.78;;;;;;;15.32;100.00;100409.84;5024107;28;20033;-62
2023/07/01 05:47:54;;;;;;;5.03;3.90;;;;;;;15.34;100.00;100408.63;5022180;28;20024;-62
2023/07/01 05:50:19;;;;;;;3.85;3.42;;;;;;;15.35;100.00;100412.94;5018300;28;20121;-62
2023/07/01 05:52:45;;;;;;;4.00;3.60;;;;;;;15.37;100.00;100410.88;5025847;28;20033;-62
2023/07/01 05:55:10;;;;;;;6.25;3.85;;;;;;;15.40;100.00;100409.63;5033796;28;20027;-62
2023/07/01 05:57:35;;;;;;;4.35;3.47;;;;;;;15.41;100.00;100405.91;5025365;28;20041;-62
2023/07/01 06:00:04;;;;;;;4.55;3.63;;;;;;;15.43;100.00;100411.88;5028823;28;20120;-62
2023/07/01 06:02:29;;;;;;;6.85;3.60;;;;;;;15.43;100.00;100407.34;5014306;28;20032;-62
2023/07/01 06:04:54;;;;;;;4.57;3.67;;;;;;;15.45;100.00;100404.44;5026776;28;20236;-62
2023/07/01 06:07:19;;;;;;;4.18;3.58;;;;;;;15.47;100.00;100410.41;5022041;28;20021;-62
2023/07/01 06:09:48;;;;;;;6.13;3.88;;;;;;;15.48;100.00;100410.19;5012586;28;20025;-62
2023/07/01 06:12:13;;;;;;;4.20;3.65;;;;;;;15.49;100.00;100398.44;5022443;28;20025;-62
2023/07/01 06:14:39;;;;;;;5.85;3.67;;;;;;;15.53;100.00;100400.69;5015150;28;20446;-62
2023/07/01 06:17:04;;;;;;;3.80;3.50;;;;;;;15.54;100.00;100396.97;5011261;28;20526;-62
2023/07/01 06:19:29;;;;;;;3.92;3.40;;;;;;;15.57;100.00;100400.06;5014184;28;20049;-62
2023/07/01 06:21:55;;;;;;;4.13;3.40;;;;;;;15.59;100.00;100395.34;5008571;28;20029;-62
2023/07/01 06:24:20;;;;;;;4.45;3.47;;;;;;;15.61;100.00;100398.66;5009752;28;20018;-62
2023/07/01 06:26:45;;;;;;;3.83;3.35;;;;;;;15.65;100.00;100399.03;5017550;28;20044;-62
2023/07/01 06:29:10;;;;;;;4.13;3.45;;;;;;;15.67;100.00;100387.06;5016052;28;20049;-62
2023/07/01 06:31:37;;;;;;;3.67;3.30;;;;;;;15.70;100.00;100394.69;5019642;28;20037;-62
2023/07/01 06:34:10;;;;;;;3.17;2.92;;;;;;;15.70;100.00;100389.31;5028414;28;20025;-62
2023/07/01 06:36:35;;;;;;;3.65;3.30;;;;;;;15.70;100.00;100396.53;5015832;28;20112;-62
2023/07/01 06:39:00;;;;;;;4.38;3.28;;;;;;;15.71;100.00;100390.13;5027346;28;20101;-62
2023/07/01 06:41:26;;;;;;;3.75;3.10;;;;;;;15.67;100.00;100391.59;5020437;28;20022;-62
2023/07/01 06:43:52;;;;;;;3.58;3.00;;;;;;;15.63;100.00;100401.09;5018993;28;20021;-62
2023/07/01 06:46:19;;;;;;;3.08;2.88;;;;;;;15.61;100.00;100395.13;5021456;28;20030;-62
2023/07/01 06:48:44;;;;;;;3.92;3.20;;;;;;;15.61;100.00;100397.78;5017503;28;20025;-62
2023/07/01 06:51:10;;;;;;;3.75;3.20;;;;;;;15.63;100.00;100395.75;5026005;28;20036;-62
2023/07/01 06:53:37;;;;;;;3.25;2.90;;;;;;;15.65;100.00;100388.34;5026135;28;20692;-62
2023/07/01 06:56:03;;;;;;;3.50;2.85;;;;;;;15.69;100.00;100385.00;5026229;28;20544;-62
2023/07/01 06:58:28;;;;;;;3.95;2.92;;;;;;;15.77;100.00;100383.91;5018314;28;20034;-62
2023/07/01 07:00:53;;;;;;;4.15;3.05;;;;;;;15.83;100.00;100395.63;5021944;28;20032;-62
2023/07/01 07:03:19;;;;;;;3.30;2.80;;;;;;;15.85;100.00;100396.22;5020215;28;20025;-62
2023/07/01 07:05:45;;;;;;;3.40;2.85;;;;;;;15.87;100.00;100386.13;5022948;28;20048;-62
2023/07/01 07:08:10;;;;;;;2.75;2.55;;;;;;;15.90;100.00;100396.38;5027366;28;20028;-62
2023/07/01 07:10:35;;;;;;;3.70;2.92;;;;;;;15.87;100.00;100386.13;5025046;28;20553;-62
2023/07/01 07:13:00;;;;;;;3.65;3.13;;;;;;;15.80;100.00;100375.44;5026439;28;20032;-63
2023/07/01 07:15:26;;;;;;;3.53;3.17;;;;;;;15.82;100.00;100383.25;5024828;28;20678;-62
2023/07/01 07:17:51;;;;;;;4.05;3.35;;;;;;;15.78;100.00;100381.03;5019935;28;20036;-62
2023/07/01 07:20:16;;;;;;;4.32;3.40;;;;;;;15.77;100.00;100386.59;5021003;28;20104;-63
2023/07/01 07:22:41;;;;;;;3.83;3.42;;;;;;;15.75;100.00;100375.28;5018856;28;20096;-62
2023/07/01 07:25:15;;;;;;;4.55;3.75;;;;;;;15.75;100.00;100381.47;5019350;28;20117;-64
2023/07/01 07:27:40;;;;;;;6.50;3.65;;;;;;;15.75;100.00;100378.78;5024805;28;20026;-62
2023/07/01 07:30:06;;;;;;;3.90;3.60;;;;;;;15.75;100.00;100383.31;5027037;28;20040;-63
2023/07/01 07:32:31;;;;;;;4.20;3.70;;;;;;;15.76;100.00;100380.41;5025075;28;20364;-63
2023/07/01 07:34:56;;;;;;;4.47;4.00;;;;;;;15.77;100.00;100384.75;5027285;28;20051;-62
2023/07/01 07:37:21;;;;;;;4.93;3.92;;;;;;;15.76;100.00;100377.75;5020603;28;20104;-62
2023/07/01 07:39:47;;;;;;;5.10;4.07;;;;;;;15.77;100.00;100373.22;5023030;28;20022;-62
2023/07/01 07:42:12;;;;;;;4.30;3.90;;;;;;;15.77;100.00;100375.88;5027677;28;20025;-62
2023/07/01 07:44:37;;;;;;;5.28;4.25;;;;;;;15.78;100.00;100380.19;5024262;28;20043;-62
2023/07/01 07:47:02;;;;;;;4.55;4.15;;;;;;;15.76;100.00;100372.38;5028243;28;20017;-62
2023/07/01 07:49:28;;;;;;;4.63;4.20;;;;;;;15.76;100.00;100377.75;5029099;28;20641;-62
2023/07/01 07:51:53;;;;;;;5.25;4.75;;;;;;;15.74;100.00;100373.66;5029287;28;20053;-62
2023/07/01 07:54:18;;;;;;;4.28;3.92;;;;;;;15.75;100.00;100375.28;5025195;28;20025;-62
2023/07/01 07:56:44;;;;;;;5.65;4.47;;;;;;;15.77;100.00;100371.34;5029913;28;20029;-62
2023/07/01 07:59:09;;;;;;;6.55;4.50;;;;;;;15.82;100.00;100369.88;5023503;28;20503;-61
2023/07/01 08:01:34;;;;;;;8.52;5.00;;;;;;;15.89;100.00;100367.97;5024935;28;20025;-62
2023/07/01 08:03:59;;;;;;;5.00;4.60;;;;;;;15.93;100.00;100363.84;5024843;28;20080;-62
2023/07/01 08:06:25;;;;;;;5.22;4.65;;;;;;;15.97;100.00;100370.41;5021868;28;20108;-62
2023/07/01 08:08:50;;;;;;;5.80;4.95;;;;;;;15.99;100.00;100371.81;5025670;28;20040;-62
2023/07/01 08:11:16;;;;;;;7.13;4.70;;;;;;;16.03;100.00;100367.66;5023346;28;20403;-62
2023/07/01 08:13:41;;;;;;;4.95;4.55;;;;;;;16.09;100.00;100364.13;5032532;28;20025;-62
2023/07/01 08:16:06;;;;;;;5.22;4.57;;;;;;;16.11;100.00;100367.41;5027780;28;20423;-62
2023/07/01 08:18:32;;;;;;;6.97;4.30;;;;;;;16.14;100.00;100358.09;5023787;28;20475;-62
2023/07/01 08:20:57;;;;;;;5.18;4.65;;;;;;;16.19;100.00;100360.13;5024877;28;20080;-62
2023/07/01 08:23:22;;;;;;;4.85;4.20;;;;;;;16.20;100.00;100359.94;5022490;28;20032;-62
2023/07/01 08:25:48;;;;;;;4.70;4.35;;;;;;;16.26;100.00;100358.22;5024336;28;20380;-62
2023/07/01 08:28:13;;;;;;;4.50;4.10;;;;;;;16.29;100.00;100355.91;5024369;28;20025;-62
2023/07/01 08:30:38;;;;;;;4.47;3.90;;;;;;;16.33;100.00;100364.34;5021814;28;20025;-62
2023/07/01 08:33:04;;;;;;;4.57;4.13;;;;;;;16.37;100.00;100354.81;5022416;28;20399;-61
2023/07/01 08:35:30;;;;;;;4.63;4.05;;;;;;;16.41;100.00;100351.47;5030153;28;20049;-62
2023/07/01 08:37:55;;;;;;;4.07;3.78;;;;;;;16.40;100.00;100349.81;5026880;28;20030;-62
2023/07/01 08:40:20;;;;;;;4.50;4.10;;;;;;;16.45;100.00;100357.19;5024504;28;20573;-61
2023/07/01 08:42:51;;;;;;;4.05;3.75;;;;;;;16.49;100.00;100358.44;5025371;28;20025;-61
2023/07/01 08:45:22;;;;;;;4.75;3.75;;;;;;;16.49;100.00;100349.56;5018673;28;20026;-62
2023/07/01 08:47:48;;;;;;;4.30;3.90;;;;;;;16.51;100.00;100355.53;5026764;28;20521;-62
2023/07/01 08:50:18;;;;;;;3.53;3.22;;;;;;;16.51;100.00;100356.34;5017360;28;20092;-62
2023/07/01 08:52:46;;;;;;;4.90;3.65;;;;;;;16.52;100.00;100351.81;5023147;28;20074;-62
2023/07/01 08:55:12;;;;;;;3.90;3.50;;;;;;;16.54;100.00;100355.91;5022299;28;20495;-62
2023/07/01 08:57:40;;;;;;;4.20;3.80;;;;;;;16.57;100.00;100347.41;5026174;28;20028;-62
2023/07/01 09:00:12;;;;;;;3.40;3.20;;;;;;;16.56;100.00;100350.31;5024677;28;20030;-62
2023/07/01 09:02:39;;;;;;;3.65;3.30;;;;;;;16.58;100.00;100350.91;5020814;28;20486;-62
2023/07/01 09:05:05;;;;;;;4.10;3.67;;;;;;;16.59;100.00;100352.56;5022793;28;20436;-62
2023/07/01 09:07:30;;;;;;;4.00;3.30;;;;;;;16.59;100.00;100344.50;5022624;28;20498;-62
2023/07/01 09:09:56;;;;;;;3.65;3.35;;;;;;;16.59;100.00;100352.56;5022761;28;20026;-62
2023/07/01 09:12:26;;;;;;;3.60;3.30;;;;;;;16.57;100.00;100343.91;5020866;28;20091;-62
2023/07/01 09:15:04;;;;;;;4.57;3.50;;;;;;;16.61;100.00;100342.41;5026964;28;20398;-61
2023/07/01 09:17:31;;;;;;;3.10;2.90;;;;;;;16.67;100.00;100347.75;5010893;28;20500;-61
2023/07/01 09:20:03;;;;;;;3.20;2.90;;;;;;;16.74;100.00;100342.28;5019879;28;20403;-62
2023/07/01 09:22:28;;;;;;;3.95;3.00;;;;;;;16.76;100.00;100344.75;5016372;28;20036;-62
2023/07/01 09:24:54;;;;;;;2.88;2.67;;;;;;;16.80;100.00;100346.78;5023825;28;20025;-62
2023/07/01 09:27:20;;;;;;;3.20;2.65;;;;;;;16.86;100.00;100343.22;5024209;28;20064;-61
2023/07/01 09:29:45;;;;;;;4.03;2.72;;;;;;;16.88;100.00;100330.41;5020638;28;20052;-62
2023/07/01 09:32:10;;;;;;;4.55;2.67;;;;;;;16.93;100.00;100338.59;5020683;28;20423;-62
2023/07/01 09:34:58;;;;;;;2.75;2.55;;;;;;;16.94;100.00;100337.53;5027253;28;20068;-62
2023/07/01 09:37:24;;;;;;;2.55;2.35;;;;;;;16.94;100.00;100340.22;5021706;28;20037;-62
2023/07/01 09:39:50;;;;;;;3.15;2.80;;;;;;;16.97;100.00;100342.44;5015932;28;20026;-62
2023/07/01 09:42:19;;;;;;;2.72;2.53;;;;;;;16.95;100.00;100331.13;5014946;28;20160;-62
2023/07/01 09:45:07;;;;;;;2.97;2.50;;;;;;;16.92;100.00;100334.25;5020414;28;20060;-62
2023/07/01 09:47:33;;;;;;;3.08;2.80;;;;;;;16.96;100.00;100340.81;5020585;28;20044;-62
2023/07/01 09:49:58;;;;;;;3.47;2.72;;;;;;;16.96;100.00;100332.75;5019798;28;20033;-62
2023/07/01 09:52:36;;;;;;;2.70;2.50;;;;;;;16.94;100.00;100334.84;5023621;28;20033;-62
2023/07/01 09:55:03;;;;;;;3.00;2.60;;;;;;;16.94;100.00;100332.19;5026971;28;20036;-62
2023/07/01 09:57:29;;;;;;;2.72;2.47;;;;;;;16.99;100.00;100332.31;5013115;28;20029;-62
2023/07/01 09:59:54;;;;;;;2.80;2.60;;;;;;;16.98;100.00;100333.34;5017995;28;20021;-62
2023/07/01 10:02:21;;;;;;;3.00;2.70;;;;;;;16.96;100.00;100327.41;5022068;28;20036;-62
2023/07/01 10:04:46;;;;;;;3.17;2.90;;;;;;;16.99;100.00;100326.94;5023633;28;20040;-62
2023/07/01 10:07:12;;;;;;;3.13;2.92;;;;;;;16.99;100.00;100321.59;5026029;28;20029;-62
2023/07/01 10:09:44;;;;;;;3.40;3.10;;;;;;;17.04;100.00;100323.59;5020861;28;20049;-62
2023/07/01 10:12:11;;;;;;;3.72;3.33;;;;;;;17.09;100.00;100329.13;5014966;28;20480;-62
2023/07/01 10:14:37;;;;;;;3.33;3.03;;;;;;;17.11;100.00;100324.34;5025685;28;20033;-62
2023/07/01 10:17:03;;;;;;;3.83;3.42;;;;;;;17.13;100.00;100327.63;5022001;28;20079;-62
2023/07/01 10:19:29;;;;;;;3.67;3.38;;;;;;;17.18;100.00;100324.25;5023427;28;20033;-62
2023/07/01 10:22:18;;;;;;;3.67;3.35;;;;;;;17.23;100.00;100327.06;5024618;28;20021;-62
2023/07/01 10:24:43;;;;;;;4.00;3.60;;;;;;;17.27;100.00;100322.88;5019634;28;20705;-62
2023/07/01 10:27:08;;;;;;;3.92;3.53;;;;;;;17.30;100.00;100311.69;5027086;28;20017;-63
2023/07/01 10:29:34;;;;;;;4.20;3.80;;;;;;;17.36;100.00;100315.34;5026028;28;20459;-63
2023/07/01 10:32:08;;;;;;;4.38;3.97;;;;;;;17.45;100.00;100316.66;5027583;28;20048;-62
2023/07/01 10:34:52;;;;;;;4.15;3.75;;;;;;;17.50;100.00;100311.41;5020401;28;20033;-62
2023/07/01 10:37:17;;;;;;;4.90;3.80;;;;;;;17.55;100.00;100317.75;5021651;28;20035;-63
2023/07/01 10:39:42;;;;;;;4.13;3.72;;;;;;;17.59;100.00;100308.16;5024000;28;20112;-62
2023/07/01 10:42:33;;;;;;;4.18;3.78;;;;;;;17.67;100.00;100319.66;5019436;28;20064;-63
2023/07/01 10:45:10;;;;;;;5.85;3.90;;;;;;;17.75;100.00;100317.47;5021508;28;20037;-63
2023/07/01 10:47:43;;;;;;;4.15;3.80;;;;;;;17.80;100.00;100309.53;5024812;28;20503;-62
2023/07/01 10:50:10;;;;;;;3.83;3.53;;;;;;;17.90;100.00;100300.91;5019088;28;20025;-63
2023/07/01 10:52:59;;;;;;;4.15;3.78;;;;;;;17.93;100.00;100312.03;5023707;28;20028;-63
2023/07/01 10:55:43;;;;;;;3.97;3.67;;;;;;;18.04;100.00;100314.97;5019585;28;20029;-63
2023/07/01 10:58:29;;;;;;;4.00;3.70;;;;;;;18.09;100.00;100301.63;5022381;28;20026;-63
2023/07/01 11:00:58;;;;;;;4.80;4.40;;;;;;;18.14;100.00;100309.81;5018284;28;20037;-63
2023/07/01 11:03:36;;;;;;;;;;;;;;;18.15;100.00;100306.88;5026560;28;20037;-63
2023/07/01 11:06:06;;;;;;;4.60;4.20;;;;;;;18.07;100.00;100309.13;5015719;28;19920;-63
2023/07/01 11:08:35;;;;;;;5.43;4.93;;;;;;;18.07;100.00;100311.81;5019813;28;20017;-63
2023/07/01 11:11:00;;;;;;;5.55;5.05;;;;;;;18.14;100.00;100313.31;5022250;28;20037;-63
2023/07/01 11:13:26;;;;;;;5.72;5.22;;;;;;;18.16;100.00;100313.91;5019546;28;20075;-63
2023/07/01 11:16:03;;;;;;;6.30;5.70;;;;;;;18.24;100.00;100318.94;5025550;28;20029;-63
2023/07/01 11:18:48;;;;;;;7.90;6.50;;;;;;;18.25;100.00;100300.94;5018144;28;20506;-63
2023/07/01 11:21:18;;;;;;;6.60;5.95;;;;;;;18.37;100.00;100311.69;5026157;28;20029;-63